Prairie Hill, Texas
Current Conditions -  °F | °C
As of 8:55 AM on Friday 28 Nov 2014 (Local Time) from KLXY Reporting Station
Clear Clear  
Wind Chill: 41°   Ceiling: Unl
Heat Index: 46°   Visibility: 10mi
Dew Point: 37°   Wind: 9mph
Humidity: 71%   Direction: 170°S
Pressure: 30.29"   Gusts: NA
Location:  31.66°N, 96.79°W
Report Text: KLXY 281455Z AUTO 17008KT 10SM CLR 08/03 A3029 RMK AO2 T00770028
Loading
Personal Weather Stations






























Interactive Weather Map New forecast layout! Learn more

10-Day Weather Forecast

Advertisements
Track Severe Weather on mobile